sensor_id;sensor_type;location;lat;lon;timestamp;P1;durP1;ratioP1;P2;durP2;ratioP2
11222;SDS011;5668;52.012;8.724;2023-02-28T00:01:24;7.23;;;6.17;;
11222;SDS011;5668;52.012;8.724;2023-02-28T00:03:52;8.07;;;6.67;;
11222;SDS011;5668;52.012;8.724;2023-02-28T00:06:19;7.67;;;6.47;;
11222;SDS011;5668;52.012;8.724;2023-02-28T00:08:48;9.60;;;6.10;;
11222;SDS011;5668;52.012;8.724;2023-02-28T00:11:15;7.47;;;5.90;;
11222;SDS011;5668;52.012;8.724;2023-02-28T00:13:43;6.23;;;5.70;;
11222;SDS011;5668;52.012;8.724;2023-02-28T00:16:13;8.33;;;6.37;;
11222;SDS011;5668;52.012;8.724;2023-02-28T00:18:42;6.43;;;5.67;;
11222;SDS011;5668;52.012;8.724;2023-02-28T00:21:10;7.07;;;6.27;;
11222;SDS011;5668;52.012;8.724;2023-02-28T00:23:37;7.60;;;6.20;;
11222;SDS011;5668;52.012;8.724;2023-02-28T00:26:05;6.67;;;5.97;;
11222;SDS011;5668;52.012;8.724;2023-02-28T00:28:33;5.97;;;5.37;;
11222;SDS011;5668;52.012;8.724;2023-02-28T00:31:00;7.70;;;5.70;;
11222;SDS011;5668;52.012;8.724;2023-02-28T00:33:27;6.93;;;5.53;;
11222;SDS011;5668;52.012;8.724;2023-02-28T00:36:05;6.47;;;5.43;;
11222;SDS011;5668;52.012;8.724;2023-02-28T00:38:33;8.27;;;5.80;;
11222;SDS011;5668;52.012;8.724;2023-02-28T00:41:00;6.43;;;5.43;;
11222;SDS011;5668;52.012;8.724;2023-02-28T00:43:31;7.20;;;6.10;;
11222;SDS011;5668;52.012;8.724;2023-02-28T00:45:58;5.93;;;5.33;;
11222;SDS011;5668;52.012;8.724;2023-02-28T00:48:26;7.00;;;5.30;;
11222;SDS011;5668;52.012;8.724;2023-02-28T00:50:53;6.47;;;5.20;;
11222;SDS011;5668;52.012;8.724;2023-02-28T00:53:20;8.33;;;6.17;;
11222;SDS011;5668;52.012;8.724;2023-02-28T00:55:48;7.67;;;5.90;;
11222;SDS011;5668;52.012;8.724;2023-02-28T00:58:15;7.83;;;5.90;;
11222;SDS011;5668;52.012;8.724;2023-02-28T01:00:44;6.90;;;5.47;;
11222;SDS011;5668;52.012;8.724;2023-02-28T01:03:13;6.00;;;5.37;;
11222;SDS011;5668;52.012;8.724;2023-02-28T01:05:41;7.70;;;6.40;;
11222;SDS011;5668;52.012;8.724;2023-02-28T01:08:08;7.30;;;5.53;;
11222;SDS011;5668;52.012;8.724;2023-02-28T01:10:36;7.70;;;6.10;;
11222;SDS011;5668;52.012;8.724;2023-02-28T01:13:03;6.40;;;5.70;;
11222;SDS011;5668;52.012;8.724;2023-02-28T01:15:30;6.63;;;5.83;;
11222;SDS011;5668;52.012;8.724;2023-02-28T01:17:59;7.47;;;6.30;;
11222;SDS011;5668;52.012;8.724;2023-02-28T01:20:26;6.50;;;5.90;;
11222;SDS011;5668;52.012;8.724;2023-02-28T01:22:54;6.63;;;5.80;;
11222;SDS011;5668;52.012;8.724;2023-02-28T01:25:21;6.53;;;5.40;;
11222;SDS011;5668;52.012;8.724;2023-02-28T01:27:48;6.30;;;5.70;;
11222;SDS011;5668;52.012;8.724;2023-02-28T01:30:15;6.93;;;6.20;;
11222;SDS011;5668;52.012;8.724;2023-02-28T01:32:43;7.50;;;5.90;;
11222;SDS011;5668;52.012;8.724;2023-02-28T01:35:11;8.37;;;6.17;;
11222;SDS011;5668;52.012;8.724;2023-02-28T01:37:39;7.33;;;6.37;;
11222;SDS011;5668;52.012;8.724;2023-02-28T01:40:06;8.87;;;6.43;;
11222;SDS011;5668;52.012;8.724;2023-02-28T01:42:35;6.50;;;5.80;;
11222;SDS011;5668;52.012;8.724;2023-02-28T01:45:08;8.33;;;6.30;;
11222;SDS011;5668;52.012;8.724;2023-02-28T01:47:47;8.07;;;6.50;;
11222;SDS011;5668;52.012;8.724;2023-02-28T01:50:19;7.23;;;6.30;;
11222;SDS011;5668;52.012;8.724;2023-02-28T01:52:52;7.77;;;6.43;;
11222;SDS011;5668;52.012;8.724;2023-02-28T01:55:21;8.47;;;6.37;;
11222;SDS011;5668;52.012;8.724;2023-02-28T01:57:54;8.33;;;6.23;;
11222;SDS011;5668;52.012;8.724;2023-02-28T02:00:25;6.50;;;5.80;;
11222;SDS011;5668;52.012;8.724;2023-02-28T02:02:55;6.73;;;5.73;;
11222;SDS011;5668;52.012;8.724;2023-02-28T02:05:27;6.63;;;6.03;;
11222;SDS011;5668;52.012;8.724;2023-02-28T02:07:57;7.00;;;6.30;;
11222;SDS011;5668;52.012;8.724;2023-02-28T02:10:29;7.43;;;6.20;;
11222;SDS011;5668;52.012;8.724;2023-02-28T02:13:11;7.40;;;6.60;;
11222;SDS011;5668;52.012;8.724;2023-02-28T02:15:53;6.90;;;6.20;;
11222;SDS011;5668;52.012;8.724;2023-02-28T02:18:28;7.03;;;6.00;;
11222;SDS011;5668;52.012;8.724;2023-02-28T02:21:15;9.00;;;6.57;;
11222;SDS011;5668;52.012;8.724;2023-02-28T02:27:25;8.53;;;6.70;;
11222;SDS011;5668;52.012;8.724;2023-02-28T02:30:08;8.70;;;6.17;;
11222;SDS011;5668;52.012;8.724;2023-02-28T02:33:02;6.93;;;6.23;;
11222;SDS011;5668;52.012;8.724;2023-02-28T02:35:39;7.75;;;6.95;;
11222;SDS011;5668;52.012;8.724;2023-02-28T02:38:13;6.60;;;6.00;;
11222;SDS011;5668;52.012;8.724;2023-02-28T02:40:47;7.83;;;6.13;;
11222;SDS011;5668;52.012;8.724;2023-02-28T02:43:22;7.40;;;6.43;;
11222;SDS011;5668;52.012;8.724;2023-02-28T02:45:56;6.27;;;5.67;;
11222;SDS011;5668;52.012;8.724;2023-02-28T02:48:30;6.77;;;5.80;;
11222;SDS011;5668;52.012;8.724;2023-02-28T02:51:05;6.77;;;5.50;;
11222;SDS011;5668;52.012;8.724;2023-02-28T02:53:40;6.90;;;6.07;;
11222;SDS011;5668;52.012;8.724;2023-02-28T02:56:14;7.77;;;6.33;;
11222;SDS011;5668;52.012;8.724;2023-02-28T02:58:44;7.43;;;6.47;;
11222;SDS011;5668;52.012;8.724;2023-02-28T03:01:16;7.33;;;6.40;;
11222;SDS011;5668;52.012;8.724;2023-02-28T03:03:52;6.70;;;6.00;;
11222;SDS011;5668;52.012;8.724;2023-02-28T03:06:23;6.93;;;6.23;;
11222;SDS011;5668;52.012;8.724;2023-02-28T03:08:50;7.33;;;5.70;;
11222;SDS011;5668;52.012;8.724;2023-02-28T03:11:18;7.67;;;6.33;;
11222;SDS011;5668;52.012;8.724;2023-02-28T03:13:57;8.70;;;6.67;;
11222;SDS011;5668;52.012;8.724;2023-02-28T03:16:36;8.40;;;6.60;;
11222;SDS011;5668;52.012;8.724;2023-02-28T03:19:25;7.83;;;6.63;;
11222;SDS011;5668;52.012;8.724;2023-02-28T03:22:08;7.40;;;6.13;;
11222;SDS011;5668;52.012;8.724;2023-02-28T03:24:45;6.50;;;5.90;;
11222;SDS011;5668;52.012;8.724;2023-02-28T03:27:23;7.57;;;5.93;;
11222;SDS011;5668;52.012;8.724;2023-02-28T03:29:55;7.00;;;5.67;;
11222;SDS011;5668;52.012;8.724;2023-02-28T03:32:28;7.40;;;5.67;;
11222;SDS011;5668;52.012;8.724;2023-02-28T03:35:00;6.37;;;5.77;;
11222;SDS011;5668;52.012;8.724;2023-02-28T03:37:34;6.97;;;5.97;;
11222;SDS011;5668;52.012;8.724;2023-02-28T03:40:05;7.00;;;5.80;;
11222;SDS011;5668;52.012;8.724;2023-02-28T03:42:39;6.17;;;5.43;;
11222;SDS011;5668;52.012;8.724;2023-02-28T03:45:10;6.07;;;5.37;;
11222;SDS011;5668;52.012;8.724;2023-02-28T03:47:41;6.37;;;5.50;;
11222;SDS011;5668;52.012;8.724;2023-02-28T03:50:14;7.13;;;5.60;;
11222;SDS011;5668;52.012;8.724;2023-02-28T03:52:47;8.00;;;5.50;;
11222;SDS011;5668;52.012;8.724;2023-02-28T03:55:16;8.57;;;5.77;;
11222;SDS011;5668;52.012;8.724;2023-02-28T03:57:47;6.37;;;5.67;;
11222;SDS011;5668;52.012;8.724;2023-02-28T04:00:25;5.97;;;5.37;;
11222;SDS011;5668;52.012;8.724;2023-02-28T04:02:57;6.00;;;5.40;;
11222;SDS011;5668;52.012;8.724;2023-02-28T04:05:25;7.53;;;5.80;;
11222;SDS011;5668;52.012;8.724;2023-02-28T04:07:55;6.70;;;5.33;;
11222;SDS011;5668;52.012;8.724;2023-02-28T04:10:30;6.93;;;5.47;;
11222;SDS011;5668;52.012;8.724;2023-02-28T04:12:57;6.27;;;5.17;;
11222;SDS011;5668;52.012;8.724;2023-02-28T04:15:25;6.13;;;5.53;;
11222;SDS011;5668;52.012;8.724;2023-02-28T04:17:52;6.27;;;5.40;;
11222;SDS011;5668;52.012;8.724;2023-02-28T04:20:20;5.83;;;5.23;;
11222;SDS011;5668;52.012;8.724;2023-02-28T04:22:47;6.00;;;5.40;;
11222;SDS011;5668;52.012;8.724;2023-02-28T04:25:16;6.20;;;5.60;;
11222;SDS011;5668;52.012;8.724;2023-02-28T04:27:43;6.50;;;5.43;;
11222;SDS011;5668;52.012;8.724;2023-02-28T04:30:10;6.50;;;5.47;;
11222;SDS011;5668;52.012;8.724;2023-02-28T04:32:38;6.20;;;5.40;;
11222;SDS011;5668;52.012;8.724;2023-02-28T04:35:06;7.60;;;5.27;;
11222;SDS011;5668;52.012;8.724;2023-02-28T04:37:33;5.73;;;5.13;;
11222;SDS011;5668;52.012;8.724;2023-02-28T04:40:02;6.80;;;5.77;;
11222;SDS011;5668;52.012;8.724;2023-02-28T04:42:32;6.83;;;5.60;;
11222;SDS011;5668;52.012;8.724;2023-02-28T04:45:01;6.77;;;5.63;;
11222;SDS011;5668;52.012;8.724;2023-02-28T04:47:29;6.83;;;5.40;;
11222;SDS011;5668;52.012;8.724;2023-02-28T04:49:56;8.03;;;5.60;;
11222;SDS011;5668;52.012;8.724;2023-02-28T04:52:23;6.30;;;5.47;;
11222;SDS011;5668;52.012;8.724;2023-02-28T04:54:53;8.43;;;5.53;;
11222;SDS011;5668;52.012;8.724;2023-02-28T04:57:20;9.63;;;5.60;;
11222;SDS011;5668;52.012;8.724;2023-02-28T04:59:48;6.00;;;5.40;;
11222;SDS011;5668;52.012;8.724;2023-02-28T05:02:15;6.93;;;5.10;;
11222;SDS011;5668;52.012;8.724;2023-02-28T05:04:43;6.43;;;5.77;;
11222;SDS011;5668;52.012;8.724;2023-02-28T05:07:10;6.63;;;4.90;;
11222;SDS011;5668;52.012;8.724;2023-02-28T05:09:37;5.80;;;5.20;;
11222;SDS011;5668;52.012;8.724;2023-02-28T05:12:04;7.40;;;5.30;;
11222;SDS011;5668;52.012;8.724;2023-02-28T05:14:32;8.93;;;5.33;;
11222;SDS011;5668;52.012;8.724;2023-02-28T05:17:00;5.80;;;5.20;;
11222;SDS011;5668;52.012;8.724;2023-02-28T05:19:28;6.13;;;5.50;;
11222;SDS011;5668;52.012;8.724;2023-02-28T05:21:55;7.30;;;6.13;;
11222;SDS011;5668;52.012;8.724;2023-02-28T05:24:23;6.67;;;5.80;;
11222;SDS011;5668;52.012;8.724;2023-02-28T05:26:50;6.03;;;5.37;;
11222;SDS011;5668;52.012;8.724;2023-02-28T05:29:18;5.77;;;5.20;;
11222;SDS011;5668;52.012;8.724;2023-02-28T05:31:46;6.43;;;5.60;;
11222;SDS011;5668;52.012;8.724;2023-02-28T05:34:14;6.10;;;5.40;;
11222;SDS011;5668;52.012;8.724;2023-02-28T05:36:42;5.70;;;5.10;;
11222;SDS011;5668;52.012;8.724;2023-02-28T05:39:09;7.83;;;5.80;;
11222;SDS011;5668;52.012;8.724;2023-02-28T05:41:38;7.60;;;5.90;;
11222;SDS011;5668;52.012;8.724;2023-02-28T05:44:06;6.77;;;5.60;;
11222;SDS011;5668;52.012;8.724;2023-02-28T05:46:33;6.87;;;5.97;;
11222;SDS011;5668;52.012;8.724;2023-02-28T05:49:01;6.13;;;5.50;;
11222;SDS011;5668;52.012;8.724;2023-02-28T05:51:29;6.97;;;5.47;;
11222;SDS011;5668;52.012;8.724;2023-02-28T05:54:00;6.40;;;5.80;;
11222;SDS011;5668;52.012;8.724;2023-02-28T05:56:28;6.03;;;5.43;;
11222;SDS011;5668;52.012;8.724;2023-02-28T05:58:55;6.40;;;5.63;;
11222;SDS011;5668;52.012;8.724;2023-02-28T06:01:24;8.07;;;5.97;;
11222;SDS011;5668;52.012;8.724;2023-02-28T06:03:57;6.97;;;5.77;;
11222;SDS011;5668;52.012;8.724;2023-02-28T06:06:25;6.73;;;6.00;;
11222;SDS011;5668;52.012;8.724;2023-02-28T06:08:54;7.13;;;6.27;;
11222;SDS011;5668;52.012;8.724;2023-02-28T06:11:21;6.63;;;5.87;;
11222;SDS011;5668;52.012;8.724;2023-02-28T06:13:52;8.00;;;5.77;;
11222;SDS011;5668;52.012;8.724;2023-02-28T06:16:21;5.93;;;5.33;;
11222;SDS011;5668;52.012;8.724;2023-02-28T06:18:48;8.43;;;5.70;;
11222;SDS011;5668;52.012;8.724;2023-02-28T06:21:15;7.77;;;6.27;;
11222;SDS011;5668;52.012;8.724;2023-02-28T06:23:43;6.27;;;5.43;;
11222;SDS011;5668;52.012;8.724;2023-02-28T06:26:11;9.00;;;6.00;;
11222;SDS011;5668;52.012;8.724;2023-02-28T06:28:39;6.53;;;5.77;;
11222;SDS011;5668;52.012;8.724;2023-02-28T06:31:07;8.83;;;6.30;;
11222;SDS011;5668;52.012;8.724;2023-02-28T06:33:35;9.73;;;6.53;;
11222;SDS011;5668;52.012;8.724;2023-02-28T06:36:03;8.53;;;6.27;;
11222;SDS011;5668;52.012;8.724;2023-02-28T06:38:31;8.33;;;6.67;;
11222;SDS011;5668;52.012;8.724;2023-02-28T06:40:59;7.20;;;6.13;;
11222;SDS011;5668;52.012;8.724;2023-02-28T06:43:29;7.23;;;6.53;;
11222;SDS011;5668;52.012;8.724;2023-02-28T06:46:00;7.87;;;6.43;;
11222;SDS011;5668;52.012;8.724;2023-02-28T06:48:29;7.23;;;6.40;;
11222;SDS011;5668;52.012;8.724;2023-02-28T06:51:01;8.60;;;6.60;;
11222;SDS011;5668;52.012;8.724;2023-02-28T06:53:29;7.03;;;6.27;;
11222;SDS011;5668;52.012;8.724;2023-02-28T06:55:56;7.20;;;6.50;;
11222;SDS011;5668;52.012;8.724;2023-02-28T06:58:23;8.10;;;6.00;;
11222;SDS011;5668;52.012;8.724;2023-02-28T07:00:52;7.33;;;6.57;;
11222;SDS011;5668;52.012;8.724;2023-02-28T07:03:19;6.90;;;6.27;;
11222;SDS011;5668;52.012;8.724;2023-02-28T07:05:48;8.83;;;7.07;;
11222;SDS011;5668;52.012;8.724;2023-02-28T07:08:16;7.80;;;6.37;;
11222;SDS011;5668;52.012;8.724;2023-02-28T07:10:43;8.40;;;6.43;;
11222;SDS011;5668;52.012;8.724;2023-02-28T07:13:10;6.80;;;6.20;;
11222;SDS011;5668;52.012;8.724;2023-02-28T07:15:38;7.13;;;6.23;;
11222;SDS011;5668;52.012;8.724;2023-02-28T07:18:06;6.80;;;5.90;;
11222;SDS011;5668;52.012;8.724;2023-02-28T07:20:33;7.83;;;6.10;;
11222;SDS011;5668;52.012;8.724;2023-02-28T07:23:01;9.00;;;6.33;;
11222;SDS011;5668;52.012;8.724;2023-02-28T07:25:28;7.23;;;5.90;;
11222;SDS011;5668;52.012;8.724;2023-02-28T07:27:55;9.27;;;6.20;;
11222;SDS011;5668;52.012;8.724;2023-02-28T07:30:24;6.30;;;5.70;;
11222;SDS011;5668;52.012;8.724;2023-02-28T07:32:51;7.13;;;5.87;;
11222;SDS011;5668;52.012;8.724;2023-02-28T07:35:21;6.70;;;5.80;;
11222;SDS011;5668;52.012;8.724;2023-02-28T07:37:48;7.77;;;6.00;;
11222;SDS011;5668;52.012;8.724;2023-02-28T07:40:16;7.40;;;6.30;;
11222;SDS011;5668;52.012;8.724;2023-02-28T07:42:44;9.20;;;5.60;;
11222;SDS011;5668;52.012;8.724;2023-02-28T07:45:11;8.23;;;5.60;;
11222;SDS011;5668;52.012;8.724;2023-02-28T07:47:38;6.83;;;6.20;;
11222;SDS011;5668;52.012;8.724;2023-02-28T07:50:09;6.20;;;5.60;;
11222;SDS011;5668;52.012;8.724;2023-02-28T07:52:40;8.43;;;6.27;;
11222;SDS011;5668;52.012;8.724;2023-02-28T07:55:08;8.20;;;6.60;;
11222;SDS011;5668;52.012;8.724;2023-02-28T07:57:36;7.17;;;6.47;;
11222;SDS011;5668;52.012;8.724;2023-02-28T08:00:04;8.00;;;6.90;;
11222;SDS011;5668;52.012;8.724;2023-02-28T08:02:34;8.27;;;6.77;;
11222;SDS011;5668;52.012;8.724;2023-02-28T08:05:02;7.83;;;6.97;;
11222;SDS011;5668;52.012;8.724;2023-02-28T08:07:29;7.97;;;7.07;;
11222;SDS011;5668;52.012;8.724;2023-02-28T08:09:58;9.93;;;7.30;;
11222;SDS011;5668;52.012;8.724;2023-02-28T08:12:26;9.27;;;6.90;;
11222;SDS011;5668;52.012;8.724;2023-02-28T08:14:53;9.67;;;8.27;;
11222;SDS011;5668;52.012;8.724;2023-02-28T08:17:20;9.57;;;7.77;;
11222;SDS011;5668;52.012;8.724;2023-02-28T08:19:48;8.97;;;7.03;;
11222;SDS011;5668;52.012;8.724;2023-02-28T08:22:15;8.30;;;7.17;;
11222;SDS011;5668;52.012;8.724;2023-02-28T08:24:42;9.47;;;7.47;;
11222;SDS011;5668;52.012;8.724;2023-02-28T08:27:11;8.87;;;7.50;;
11222;SDS011;5668;52.012;8.724;2023-02-28T08:29:38;9.27;;;7.93;;
11222;SDS011;5668;52.012;8.724;2023-02-28T08:32:06;7.87;;;7.17;;
11222;SDS011;5668;52.012;8.724;2023-02-28T08:34:33;8.07;;;7.20;;
11222;SDS011;5668;52.012;8.724;2023-02-28T08:37:00;9.10;;;7.37;;
11222;SDS011;5668;52.012;8.724;2023-02-28T08:39:28;7.83;;;7.13;;
11222;SDS011;5668;52.012;8.724;2023-02-28T08:41:55;8.10;;;7.30;;
11222;SDS011;5668;52.012;8.724;2023-02-28T08:44:23;8.17;;;6.43;;
11222;SDS011;5668;52.012;8.724;2023-02-28T08:46:52;8.63;;;6.10;;
11222;SDS011;5668;52.012;8.724;2023-02-28T08:49:19;7.37;;;6.57;;
11222;SDS011;5668;52.012;8.724;2023-02-28T08:51:46;7.97;;;6.33;;
11222;SDS011;5668;52.012;8.724;2023-02-28T08:54:13;6.43;;;5.83;;
11222;SDS011;5668;52.012;8.724;2023-02-28T08:56:44;6.97;;;6.27;;
11222;SDS011;5668;52.012;8.724;2023-02-28T08:59:12;6.10;;;5.50;;
11222;SDS011;5668;52.012;8.724;2023-02-28T09:01:41;6.07;;;5.57;;
11222;SDS011;5668;52.012;8.724;2023-02-28T09:04:09;5.33;;;4.83;;
11222;SDS011;5668;52.012;8.724;2023-02-28T09:06:37;5.43;;;4.93;;
11222;SDS011;5668;52.012;8.724;2023-02-28T09:09:04;6.20;;;4.83;;
11222;SDS011;5668;52.012;8.724;2023-02-28T09:11:32;5.47;;;4.80;;
11222;SDS011;5668;52.012;8.724;2023-02-28T09:14:00;7.60;;;5.50;;
11222;SDS011;5668;52.012;8.724;2023-02-28T09:16:29;17.17;;;14.40;;
11222;SDS011;5668;52.012;8.724;2023-02-28T09:18:58;20.57;;;18.57;;
11222;SDS011;5668;52.012;8.724;2023-02-28T09:21:26;27.17;;;24.17;;
11222;SDS011;5668;52.012;8.724;2023-02-28T09:23:54;28.10;;;25.10;;
11222;SDS011;5668;52.012;8.724;2023-02-28T09:26:22;25.60;;;22.93;;
11222;SDS011;5668;52.012;8.724;2023-02-28T09:28:51;21.23;;;18.93;;
11222;SDS011;5668;52.012;8.724;2023-02-28T09:31:19;25.70;;;23.03;;
11222;SDS011;5668;52.012;8.724;2023-02-28T09:33:48;39.43;;;31.70;;
11222;SDS011;5668;52.012;8.724;2023-02-28T09:36:18;30.80;;;27.43;;
11222;SDS011;5668;52.012;8.724;2023-02-28T09:38:46;20.53;;;18.43;;
11222;SDS011;5668;52.012;8.724;2023-02-28T09:41:16;13.73;;;12.07;;
11222;SDS011;5668;52.012;8.724;2023-02-28T09:43:47;11.60;;;10.40;;
11222;SDS011;5668;52.012;8.724;2023-02-28T09:46:20;10.30;;;9.30;;
11222;SDS011;5668;52.012;8.724;2023-02-28T09:48:53;11.23;;;10.13;;
11222;SDS011;5668;52.012;8.724;2023-02-28T09:51:33;8.00;;;7.30;;
11222;SDS011;5668;52.012;8.724;2023-02-28T09:54:06;6.63;;;5.87;;
11222;SDS011;5668;52.012;8.724;2023-02-28T09:56:44;5.30;;;4.80;;
11222;SDS011;5668;52.012;8.724;2023-02-28T09:59:18;7.10;;;4.93;;
11222;SDS011;5668;52.012;8.724;2023-02-28T10:02:00;5.27;;;4.77;;
11222;SDS011;5668;52.012;8.724;2023-02-28T10:04:38;6.37;;;4.97;;
11222;SDS011;5668;52.012;8.724;2023-02-28T10:07:15;4.90;;;4.40;;
11222;SDS011;5668;52.012;8.724;2023-02-28T10:09:50;6.27;;;4.67;;
11222;SDS011;5668;52.012;8.724;2023-02-28T10:12:22;6.63;;;4.50;;
11222;SDS011;5668;52.012;8.724;2023-02-28T10:14:51;5.63;;;4.27;;
11222;SDS011;5668;52.012;8.724;2023-02-28T10:17:21;5.73;;;4.93;;
11222;SDS011;5668;52.012;8.724;2023-02-28T10:19:55;5.83;;;4.70;;
11222;SDS011;5668;52.012;8.724;2023-02-28T10:22:36;5.70;;;4.77;;
11222;SDS011;5668;52.012;8.724;2023-02-28T10:25:18;6.70;;;4.27;;
11222;SDS011;5668;52.012;8.724;2023-02-28T10:27:47;5.27;;;4.43;;
11222;SDS011;5668;52.012;8.724;2023-02-28T10:30:15;14.17;;;4.03;;
11222;SDS011;5668;52.012;8.724;2023-02-28T10:32:45;5.20;;;2.80;;
11222;SDS011;5668;52.012;8.724;2023-02-28T10:35:19;3.97;;;2.60;;
11222;SDS011;5668;52.012;8.724;2023-02-28T10:37:49;2.67;;;2.47;;
11222;SDS011;5668;52.012;8.724;2023-02-28T10:40:29;4.80;;;2.33;;
11222;SDS011;5668;52.012;8.724;2023-02-28T10:43:01;1.90;;;1.70;;
11222;SDS011;5668;52.012;8.724;2023-02-28T10:45:29;3.07;;;1.87;;
11222;SDS011;5668;52.012;8.724;2023-02-28T10:47:59;1.90;;;1.70;;
11222;SDS011;5668;52.012;8.724;2023-02-28T10:50:31;2.43;;;1.70;;
11222;SDS011;5668;52.012;8.724;2023-02-28T10:53:07;1.40;;;1.30;;
11222;SDS011;5668;52.012;8.724;2023-02-28T10:55:56;1.73;;;1.50;;
11222;SDS011;5668;52.012;8.724;2023-02-28T10:58:25;1.87;;;1.67;;
11222;SDS011;5668;52.012;8.724;2023-02-28T11:00:53;2.00;;;1.60;;
11222;SDS011;5668;52.012;8.724;2023-02-28T11:03:25;2.03;;;1.53;;
11222;SDS011;5668;52.012;8.724;2023-02-28T11:05:57;4.33;;;1.60;;
11222;SDS011;5668;52.012;8.724;2023-02-28T11:08:26;3.20;;;1.50;;
11222;SDS011;5668;52.012;8.724;2023-02-28T11:10:54;2.53;;;1.40;;
11222;SDS011;5668;52.012;8.724;2023-02-28T11:13:25;1.80;;;1.50;;
11222;SDS011;5668;52.012;8.724;2023-02-28T11:15:55;2.37;;;1.83;;
11222;SDS011;5668;52.012;8.724;2023-02-28T11:18:24;2.43;;;1.60;;
11222;SDS011;5668;52.012;8.724;2023-02-28T11:20:56;3.67;;;1.80;;
11222;SDS011;5668;52.012;8.724;2023-02-28T11:23:28;2.57;;;2.10;;
11222;SDS011;5668;52.012;8.724;2023-02-28T11:25:58;2.50;;;1.60;;
11222;SDS011;5668;52.012;8.724;2023-02-28T11:28:28;1.90;;;1.70;;
11222;SDS011;5668;52.012;8.724;2023-02-28T11:31:02;1.97;;;1.77;;
11222;SDS011;5668;52.012;8.724;2023-02-28T11:33:32;2.20;;;1.77;;
11222;SDS011;5668;52.012;8.724;2023-02-28T11:36:10;2.43;;;2.23;;
11222;SDS011;5668;52.012;8.724;2023-02-28T11:38:40;3.27;;;2.97;;
11222;SDS011;5668;52.012;8.724;2023-02-28T11:41:16;2.83;;;2.33;;
11222;SDS011;5668;52.012;8.724;2023-02-28T11:44:11;2.40;;;2.20;;
11222;SDS011;5668;52.012;8.724;2023-02-28T11:47:00;3.93;;;2.10;;
11222;SDS011;5668;52.012;8.724;2023-02-28T11:49:36;3.20;;;1.87;;
11222;SDS011;5668;52.012;8.724;2023-02-28T11:52:14;2.23;;;1.90;;
11222;SDS011;5668;52.012;8.724;2023-02-28T11:55:00;2.20;;;1.83;;
11222;SDS011;5668;52.012;8.724;2023-02-28T11:57:45;2.63;;;1.60;;
11222;SDS011;5668;52.012;8.724;2023-02-28T12:00:33;2.57;;;1.80;;
11222;SDS011;5668;52.012;8.724;2023-02-28T12:03:14;2.37;;;2.03;;
11222;SDS011;5668;52.012;8.724;2023-02-28T12:05:49;2.13;;;1.93;;
11222;SDS011;5668;52.012;8.724;2023-02-28T12:08:26;2.37;;;2.10;;
11222;SDS011;5668;52.012;8.724;2023-02-28T12:11:10;2.70;;;2.10;;
11222;SDS011;5668;52.012;8.724;2023-02-28T12:13:46;2.30;;;1.77;;
11222;SDS011;5668;52.012;8.724;2023-02-28T12:16:40;2.40;;;1.97;;
11222;SDS011;5668;52.012;8.724;2023-02-28T12:19:17;2.20;;;1.63;;
11222;SDS011;5668;52.012;8.724;2023-02-28T12:21:55;3.03;;;1.80;;
11222;SDS011;5668;52.012;8.724;2023-02-28T12:24:39;5.00;;;3.93;;
11222;SDS011;5668;52.012;8.724;2023-02-28T12:27:17;6.70;;;3.40;;
11222;SDS011;5668;52.012;8.724;2023-02-28T12:29:49;29.90;;;25.20;;
11222;SDS011;5668;52.012;8.724;2023-02-28T12:32:21;7.83;;;6.97;;
11222;SDS011;5668;52.012;8.724;2023-02-28T12:34:55;4.67;;;3.10;;
11222;SDS011;5668;52.012;8.724;2023-02-28T12:37:28;2.50;;;2.30;;
11222;SDS011;5668;52.012;8.724;2023-02-28T12:40:05;2.50;;;2.30;;
11222;SDS011;5668;52.012;8.724;2023-02-28T12:42:41;2.27;;;1.90;;
11222;SDS011;5668;52.012;8.724;2023-02-28T12:45:13;3.63;;;2.80;;
11222;SDS011;5668;52.012;8.724;2023-02-28T12:47:44;5.63;;;2.50;;
11222;SDS011;5668;52.012;8.724;2023-02-28T12:50:17;3.33;;;2.30;;
11222;SDS011;5668;52.012;8.724;2023-02-28T12:52:48;2.27;;;2.07;;
11222;SDS011;5668;52.012;8.724;2023-02-28T12:55:21;2.90;;;2.57;;
11222;SDS011;5668;52.012;8.724;2023-02-28T12:58:00;5.07;;;3.20;;
11222;SDS011;5668;52.012;8.724;2023-02-28T13:00:37;3.00;;;2.57;;
11222;SDS011;5668;52.012;8.724;2023-02-28T13:06:22;3.20;;;2.80;;
11222;SDS011;5668;52.012;8.724;2023-02-28T13:09:10;2.70;;;2.20;;
11222;SDS011;5668;52.012;8.724;2023-02-28T13:11:41;2.80;;;2.37;;
11222;SDS011;5668;52.012;8.724;2023-02-28T13:14:24;4.47;;;3.03;;
11222;SDS011;5668;52.012;8.724;2023-02-28T13:17:02;3.03;;;2.40;;
11222;SDS011;5668;52.012;8.724;2023-02-28T13:19:37;5.10;;;3.90;;
11222;SDS011;5668;52.012;8.724;2023-02-28T13:22:15;3.70;;;2.60;;
11222;SDS011;5668;52.012;8.724;2023-02-28T13:24:46;3.63;;;2.30;;
11222;SDS011;5668;52.012;8.724;2023-02-28T13:30:02;3.40;;;2.53;;
11222;SDS011;5668;52.012;8.724;2023-02-28T13:33:26;3.23;;;2.27;;
11222;SDS011;5668;52.012;8.724;2023-02-28T13:38:52;2.77;;;2.17;;
11222;SDS011;5668;52.012;8.724;2023-02-28T13:44:10;5.40;;;2.70;;
11222;SDS011;5668;52.012;8.724;2023-02-28T13:49:52;2.80;;;2.10;;
11222;SDS011;5668;52.012;8.724;2023-02-28T13:52:20;3.23;;;2.40;;
11222;SDS011;5668;52.012;8.724;2023-02-28T13:54:56;3.67;;;2.87;;
11222;SDS011;5668;52.012;8.724;2023-02-28T13:57:53;3.20;;;2.47;;
11222;SDS011;5668;52.012;8.724;2023-02-28T14:00:45;2.80;;;2.20;;
11222;SDS011;5668;52.012;8.724;2023-02-28T14:03:33;3.80;;;2.50;;
11222;SDS011;5668;52.012;8.724;2023-02-28T14:06:16;2.67;;;2.27;;
11222;SDS011;5668;52.012;8.724;2023-02-28T14:08:52;3.43;;;2.20;;
11222;SDS011;5668;52.012;8.724;2023-02-28T14:11:24;3.37;;;2.30;;
11222;SDS011;5668;52.012;8.724;2023-02-28T14:13:54;2.67;;;2.37;;
11222;SDS011;5668;52.012;8.724;2023-02-28T14:16:23;2.40;;;2.10;;
11222;SDS011;5668;52.012;8.724;2023-02-28T14:18:55;3.13;;;2.40;;
11222;SDS011;5668;52.012;8.724;2023-02-28T14:21:27;2.70;;;2.10;;
11222;SDS011;5668;52.012;8.724;2023-02-28T14:24:00;4.37;;;2.17;;
11222;SDS011;5668;52.012;8.724;2023-02-28T14:26:44;3.87;;;2.13;;
11222;SDS011;5668;52.012;8.724;2023-02-28T14:29:30;3.07;;;2.30;;
11222;SDS011;5668;52.012;8.724;2023-02-28T14:32:13;2.50;;;2.30;;
11222;SDS011;5668;52.012;8.724;2023-02-28T14:34:49;2.83;;;2.53;;
11222;SDS011;5668;52.012;8.724;2023-02-28T14:37:27;5.40;;;2.27;;
11222;SDS011;5668;52.012;8.724;2023-02-28T14:39:56;2.90;;;2.47;;
11222;SDS011;5668;52.012;8.724;2023-02-28T14:42:29;3.90;;;2.57;;
11222;SDS011;5668;52.012;8.724;2023-02-28T14:44:58;2.87;;;2.23;;
11222;SDS011;5668;52.012;8.724;2023-02-28T14:47:27;2.50;;;2.30;;
11222;SDS011;5668;52.012;8.724;2023-02-28T14:49:56;3.07;;;2.63;;
11222;SDS011;5668;52.012;8.724;2023-02-28T14:52:26;3.17;;;2.20;;
11222;SDS011;5668;52.012;8.724;2023-02-28T14:54:55;3.00;;;2.50;;
11222;SDS011;5668;52.012;8.724;2023-02-28T14:57:27;3.27;;;2.40;;
11222;SDS011;5668;52.012;8.724;2023-02-28T15:00:03;3.30;;;2.57;;
11222;SDS011;5668;52.012;8.724;2023-02-28T15:02:38;5.57;;;2.50;;
11222;SDS011;5668;52.012;8.724;2023-02-28T15:05:16;5.00;;;2.57;;
11222;SDS011;5668;52.012;8.724;2023-02-28T15:08:00;2.80;;;2.33;;
11222;SDS011;5668;52.012;8.724;2023-02-28T15:10:30;3.07;;;2.57;;
11222;SDS011;5668;52.012;8.724;2023-02-28T15:12:58;4.00;;;2.57;;
11222;SDS011;5668;52.012;8.724;2023-02-28T15:15:29;3.27;;;2.50;;
11222;SDS011;5668;52.012;8.724;2023-02-28T15:18:07;2.90;;;2.57;;
11222;SDS011;5668;52.012;8.724;2023-02-28T15:20:40;4.57;;;3.10;;
11222;SDS011;5668;52.012;8.724;2023-02-28T15:23:11;2.93;;;2.57;;
11222;SDS011;5668;52.012;8.724;2023-02-28T15:25:39;5.60;;;2.70;;
11222;SDS011;5668;52.012;8.724;2023-02-28T15:28:10;4.33;;;3.10;;
11222;SDS011;5668;52.012;8.724;2023-02-28T15:30:49;5.10;;;3.70;;
11222;SDS011;5668;52.012;8.724;2023-02-28T15:33:20;3.30;;;2.87;;
11222;SDS011;5668;52.012;8.724;2023-02-28T15:35:49;3.50;;;2.50;;
11222;SDS011;5668;52.012;8.724;2023-02-28T15:38:21;3.27;;;2.33;;
11222;SDS011;5668;52.012;8.724;2023-02-28T15:40:52;3.40;;;2.80;;
11222;SDS011;5668;52.012;8.724;2023-02-28T15:43:24;4.13;;;2.50;;
11222;SDS011;5668;52.012;8.724;2023-02-28T15:45:54;3.40;;;2.50;;